Arequipa, Peru
Current Conditions -  °F | °C
As of 11:00 AM on Sunday 25 Jan 2015 (Local Time) from SPQU Reporting Station
Few Clouds Few Clouds  
Wind Chill: 66°   Ceiling: Unl
Heat Index: 66°   Visibility: 6mi
Dew Point: 43°   Wind: 12mph
Humidity: 43%   Direction: 260°W
Pressure: 30.27"   Gusts: NA
Location:  16.39°S, 71.53°W
Report Text: SPQU 251600Z 26010KT 220V290 9999 FEW040 19/06 Q1025 NOSIGRMK PP000
Loading
Personal Weather Stations






























Interactive Weather Map New forecast layout! Learn more

10-Day Weather Forecast

Advertisements
Track Severe Weather on mobile